Time;durP1;ratioP1;P1;durP2;ratioP2;P2;SDS_P1;SDS_P2;PMS_P1;PMS_P2;Temp;Humidity;BMP_temperature;BMP_pressure;BME280_temperature;BME280_humidity;BME280_pressure;Samples;Min_cycle;Max_cycle;Signal;HPM_P1;HPM_P2
2022/11/09 00:00:06;;;;;;;9.97;3.87;;;;;;;13.27;89.64;100363.31;5003727;28;20041;-85
2022/11/09 00:02:31;;;;;;;13.97;5.20;;;;;;;13.21;90.07;100344.41;5003221;28;20038;-86
2022/11/09 00:04:57;;;;;;;11.57;3.97;;;;;;;13.23;90.18;100362.16;5019770;28;20429;-88
2022/11/09 00:07:22;;;;;;;10.47;4.70;;;;;;;13.22;90.02;100354.19;5021330;28;20041;-88
2022/11/09 00:09:47;;;;;;;13.60;5.30;;;;;;;13.22;90.29;100370.53;5020020;28;20031;-85
2022/11/09 00:12:13;;;;;;;12.40;5.00;;;;;;;13.21;90.94;100369.69;5035795;28;20580;-85
2022/11/09 00:14:38;;;;;;;11.37;4.47;;;;;;;13.22;90.59;100370.53;5021323;28;20566;-86
2022/11/09 00:17:04;;;;;;;11.27;4.93;;;;;;;13.24;90.72;100358.34;5003537;28;20034;-87
2022/11/09 00:19:29;;;;;;;14.23;5.33;;;;;;;13.18;91.14;100360.13;5019780;28;20052;-87
2022/11/09 00:21:55;;;;;;;11.77;5.00;;;;;;;13.23;90.74;100356.69;5002659;28;20041;-87
2022/11/09 00:24:20;;;;;;;11.93;5.00;;;;;;;13.25;90.43;100349.09;5002148;28;20038;-87
2022/11/09 00:26:45;;;;;;;12.23;3.80;;;;;;;13.33;90.15;100351.44;5020839;28;20041;-87
2022/11/09 00:29:11;;;;;;;10.60;3.97;;;;;;;13.28;90.44;100356.78;5021189;28;20044;-87
2022/11/09 00:31:36;;;;;;;10.40;4.13;;;;;;;13.25;90.71;100353.72;5020050;28;20484;-88
2022/11/09 00:34:01;;;;;;;9.63;4.30;;;;;;;13.28;90.70;100364.94;5019643;28;20168;-87
2022/11/09 00:36:28;;;;;;;14.10;4.70;;;;;;;13.29;91.11;100355.72;5020441;28;20044;-87
2022/11/09 00:38:56;;;;;;;11.87;5.03;;;;;;;13.25;91.52;100356.47;5020083;28;20056;-88
2022/11/09 00:41:23;;;;;;;13.67;4.43;;;;;;;13.26;91.56;100353.50;5000527;28;20033;-88
2022/11/09 00:43:48;;;;;;;9.57;3.87;;;;;;;13.23;91.67;100345.81;5019621;28;21243;-87
2022/11/09 00:46:14;;;;;;;9.37;3.93;;;;;;;13.29;91.52;100352.19;5020084;28;20033;-89
2022/11/09 00:48:40;;;;;;;7.47;3.80;;;;;;;13.25;91.53;100351.84;5019382;28;20119;-88
2022/11/09 00:51:05;;;;;;;10.20;3.60;;;;;;;13.23;91.82;100351.25;5020140;28;20635;-86
2022/11/09 00:53:31;;;;;;;12.23;4.23;;;;;;;13.20;92.08;100361.78;5020669;28;20152;-85
2022/11/09 00:55:56;;;;;;;8.87;3.27;;;;;;;13.15;92.07;100343.44;5019378;28;20479;-88
2022/11/09 00:58:22;;;;;;;7.23;2.90;;;;;;;13.20;91.89;100356.34;5018906;28;20385;-86
2022/11/09 01:00:48;;;;;;;5.33;3.00;;;;;;;13.12;92.29;100344.78;5019989;28;20033;-88
2022/11/09 01:03:13;;;;;;;7.40;2.87;;;;;;;13.15;92.36;100340.72;5019891;28;20037;-87
2022/11/09 01:05:39;;;;;;;8.17;2.67;;;;;;;13.17;92.13;100352.22;5019857;28;20513;-85
2022/11/09 01:08:05;;;;;;;6.87;2.87;;;;;;;13.20;92.15;100357.16;5019462;28;20041;-84
2022/11/09 01:10:30;;;;;;;6.93;2.97;;;;;;;13.14;92.12;100348.06;5019596;28;20037;-88
2022/11/09 01:12:56;;;;;;;9.67;3.60;;;;;;;13.11;91.98;100355.88;5019880;28;20044;-87
2022/11/09 01:15:21;;;;;;;8.27;3.50;;;;;;;13.11;91.69;100345.00;5020698;28;20067;-86
2022/11/09 01:17:47;;;;;;;9.20;3.90;;;;;;;13.20;91.45;100357.16;5019983;28;20087;-86
2022/11/09 01:20:13;;;;;;;8.90;3.23;;;;;;;13.18;91.33;100362.84;5035133;28;20041;-86
2022/11/09 01:22:39;;;;;;;11.10;4.40;;;;;;;13.12;91.73;100363.84;5002210;28;20051;-88
2022/11/09 01:25:04;;;;;;;10.00;4.00;;;;;;;13.17;91.45;100368.53;5018222;28;20049;-86
2022/11/09 01:27:31;;;;;;;13.07;4.47;;;;;;;13.14;91.70;100363.59;5019278;28;20029;-84
2022/11/09 01:29:56;;;;;;;12.87;4.57;;;;;;;13.22;91.00;100362.34;5020151;28;20377;-87
2022/11/09 01:32:22;;;;;;;11.23;4.70;;;;;;;13.20;91.22;100369.94;5019066;28;20033;-87
2022/11/09 01:34:47;;;;;;;11.00;4.60;;;;;;;13.22;90.92;100367.78;5018861;28;20046;-87
2022/11/09 01:37:12;;;;;;;12.50;4.93;;;;;;;13.11;91.27;100366.75;5019152;28;20042;-88
2022/11/09 01:39:37;;;;;;;11.83;4.20;;;;;;;13.09;91.38;100372.44;5000383;28;20046;-87
2022/11/09 01:42:03;;;;;;;11.27;4.03;;;;;;;13.16;90.74;100367.72;5018519;28;20071;-90
2022/11/09 01:44:29;;;;;;;10.60;3.63;;;;;;;13.25;90.26;100376.31;5018832;28;20049;-84
2022/11/09 01:47:03;;;;;;;9.77;3.77;;;;;;;13.25;90.04;100375.50;5018997;28;20045;-86
2022/11/09 01:49:31;;;;;;;13.02;4.15;;;;;;;13.23;90.09;100373.03;5019189;28;20832;-88
2022/11/09 01:52:21;;;;;;;12.33;3.97;;;;;;;13.24;90.06;100368.41;5019579;28;20064;-85
2022/11/09 01:54:51;;;;;;;12.23;4.10;;;;;;;13.23;89.73;100378.47;5019516;28;20247;-85
2022/11/09 01:57:32;;;;;;;10.83;3.37;;;;;;;13.27;89.29;100371.47;5019520;28;20038;-85
2022/11/09 02:00:04;;;;;;;10.80;3.87;;;;;;;13.18;89.07;100362.84;5021639;28;20037;-88
2022/11/09 02:02:29;;;;;;;11.27;4.00;;;;;;;13.23;88.84;100355.84;5022539;28;20473;-86
2022/11/09 02:04:59;;;;;;;11.40;4.50;;;;;;;13.12;89.41;100343.94;5037264;28;20045;-86
2022/11/09 02:07:25;;;;;;;10.63;3.80;;;;;;;13.10;89.42;100351.53;5022078;28;20041;-85
2022/11/09 02:09:59;;;;;;;9.47;3.80;;;;;;;13.09;89.51;100363.47;5004879;28;20087;-84
2022/11/09 02:12:28;;;;;;;10.38;4.00;;;;;;;13.10;89.26;100365.13;5006365;28;20168;-86
2022/11/09 02:14:55;;;;;;;11.20;3.83;;;;;;;13.02;89.74;100351.91;5020227;28;20048;-87
2022/11/09 02:17:21;;;;;;;12.17;4.17;;;;;;;12.99;90.00;100356.75;5021832;28;20125;-88
2022/11/09 02:19:46;;;;;;;12.10;4.70;;;;;;;13.03;89.33;100361.69;5022819;28;20127;-87
2022/11/09 02:22:11;;;;;;;11.37;3.77;;;;;;;13.00;89.65;100366.56;5004422;28;20492;-84
2022/11/09 02:24:37;;;;;;;13.90;4.27;;;;;;;12.94;89.50;100359.34;5022912;28;20813;-86
2022/11/09 02:27:04;;;;;;;10.23;4.20;;;;;;;12.98;89.90;100368.69;5022423;28;20038;-87
2022/11/09 02:29:42;;;;;;;12.37;4.30;;;;;;;12.90;90.35;100368.25;5022383;28;20140;-88
2022/11/09 02:32:18;;;;;;;10.57;4.60;;;;;;;12.88;90.76;100376.63;5004256;28;20112;-86
2022/11/09 02:34:44;;;;;;;10.80;4.30;;;;;;;12.85;90.94;100377.09;5022010;28;20032;-88
2022/11/09 02:37:09;;;;;;;11.17;4.13;;;;;;;12.91;90.37;100381.59;5022785;28;20060;-86
2022/11/09 02:39:34;;;;;;;13.60;5.30;;;;;;;12.95;90.15;100381.94;5004702;28;20488;-87
2022/11/09 02:42:13;;;;;;;11.23;4.10;;;;;;;12.91;90.67;100378.06;5022049;28;20038;-88
2022/11/09 02:44:42;;;;;;;11.07;4.40;;;;;;;12.95;90.06;100382.75;5022705;28;20404;-86
2022/11/09 02:47:08;;;;;;;9.70;3.70;;;;;;;12.92;90.40;100371.53;5022784;28;20116;-85
2022/11/09 02:49:33;;;;;;;9.13;2.90;;;;;;;12.95;90.31;100368.34;5022101;28;20045;-88
2022/11/09 02:51:59;;;;;;;7.07;2.70;;;;;;;12.91;90.21;100370.72;5023197;28;20057;-86
2022/11/09 02:54:24;;;;;;;10.03;3.00;;;;;;;12.93;90.01;100368.59;5037871;28;20689;-85
2022/11/09 02:56:49;;;;;;;6.43;3.03;;;;;;;12.91;90.03;100370.72;5023534;28;20117;-85
2022/11/09 02:59:15;;;;;;;11.60;3.63;;;;;;;12.88;90.01;100354.88;5021935;28;20563;-83
2022/11/09 03:02:14;;;;;;;7.77;3.10;;;;;;;12.97;89.35;100353.47;5023057;28;20369;-84
2022/11/09 03:04:40;;;;;;;12.40;3.37;;;;;;;12.95;88.78;100347.41;5021242;28;20041;-88
2022/11/09 03:07:42;;;;;;;14.43;4.13;;;;;;;12.99;89.32;100362.19;5022760;28;20029;-85
2022/11/09 03:10:08;;;;;;;10.47;4.00;;;;;;;12.93;88.65;100351.44;5036286;28;20084;-86
2022/11/09 03:12:34;;;;;;;10.97;3.60;;;;;;;12.99;88.24;100366.81;5021949;28;20033;-86
2022/11/09 03:15:03;;;;;;;10.00;3.13;;;;;;;13.08;87.34;100381.69;5021988;28;20079;-84
2022/11/09 03:17:31;;;;;;;9.40;2.80;;;;;;;13.14;86.29;100397.03;5005342;28;20064;-84
2022/11/09 03:19:56;;;;;;;8.83;2.50;;;;;;;13.10;86.75;100400.50;5021126;28;20036;-85
2022/11/09 03:22:21;;;;;;;9.43;2.20;;;;;;;13.03;87.34;100391.63;5022853;28;20592;-83
2022/11/09 03:24:47;;;;;;;8.77;2.40;;;;;;;13.10;86.54;100405.94;5021439;28;20136;-84
2022/11/09 03:27:13;;;;;;;8.83;2.57;;;;;;;13.02;86.84;100403.59;5022162;28;20033;-86
2022/11/09 03:29:38;;;;;;;10.97;2.37;;;;;;;12.97;87.30;100396.97;5020920;28;20065;-86
2022/11/09 03:32:05;;;;;;;9.17;2.70;;;;;;;13.00;86.97;100407.34;5021708;28;20421;-85
2022/11/09 03:34:30;;;;;;;11.40;3.37;;;;;;;12.91;87.68;100407.97;4987990;28;20380;-87
2022/11/09 03:36:56;;;;;;;11.27;3.70;;;;;;;12.91;87.43;100395.19;5021212;28;20048;-86
2022/11/09 03:39:22;;;;;;;10.77;3.03;;;;;;;12.92;87.92;100409.59;5021670;28;20056;-84
2022/11/09 03:41:48;;;;;;;10.07;2.90;;;;;;;12.97;87.42;100415.16;5021512;28;20068;-84
2022/11/09 03:44:14;;;;;;;11.83;3.87;;;;;;;12.99;87.32;100422.00;5020801;28;20065;-83
2022/11/09 03:46:39;;;;;;;12.63;3.70;;;;;;;12.93;88.03;100422.97;5021838;28;20108;-87
2022/11/09 03:49:04;;;;;;;13.27;3.60;;;;;;;12.93;87.80;100422.13;5003950;28;20050;-84
2022/11/09 03:51:30;;;;;;;13.93;4.87;;;;;;;12.85;88.63;100431.47;5021795;28;20040;-87
2022/11/09 03:53:55;;;;;;;14.57;4.00;;;;;;;12.81;88.77;100436.56;5019580;28;20453;-85
2022/11/09 03:56:20;;;;;;;13.33;4.27;;;;;;;12.85;88.49;100442.34;5021221;28;20373;-87
2022/11/09 03:58:46;;;;;;;15.47;4.13;;;;;;;12.79;89.36;100446.03;5020849;28;20076;-87
2022/11/09 04:01:11;;;;;;;13.33;5.03;;;;;;;12.72;89.77;100439.88;5021274;28;20045;-87
2022/11/09 04:03:57;;;;;;;11.00;3.70;;;;;;;12.81;89.48;100444.72;5036121;28;20033;-87
2022/11/09 04:06:22;;;;;;;14.87;4.57;;;;;;;12.72;89.92;100450.75;5018965;28;20548;-87
2022/11/09 04:08:48;;;;;;;14.63;4.57;;;;;;;12.69;90.18;100453.94;5019134;28;20044;-86
2022/11/09 04:11:13;;;;;;;11.53;3.97;;;;;;;12.62;90.69;100448.59;5020131;28;20060;-88
2022/11/09 04:13:38;;;;;;;14.73;5.03;;;;;;;12.62;90.85;100467.63;5021167;28;20042;-86
2022/11/09 04:16:04;;;;;;;15.00;5.37;;;;;;;12.48;91.76;100456.16;5020166;28;20627;-86
2022/11/09 04:18:30;;;;;;;15.13;5.23;;;;;;;12.49;91.98;100461.34;5034877;28;20384;-85
2022/11/09 04:20:57;;;;;;;15.50;4.60;;;;;;;12.46;92.24;100461.84;5019759;28;20391;-87
2022/11/09 04:23:23;;;;;;;14.27;4.33;;;;;;;12.39;92.27;100450.25;5019163;28;20064;-85
2022/11/09 04:25:48;;;;;;;16.83;5.27;;;;;;;12.35;92.46;100457.22;5020388;28;20217;-86
2022/11/09 04:28:13;;;;;;;12.10;4.50;;;;;;;12.40;92.73;100475.53;5020426;28;20041;-85
2022/11/09 04:31:04;;;;;;;17.70;4.90;;;;;;;12.33;93.67;100473.75;5019961;28;20095;-88
2022/11/09 04:33:29;;;;;;;13.97;4.03;;;;;;;12.35;93.46;100475.38;5019827;28;20043;-87
2022/11/09 04:36:01;;;;;;;9.77;3.60;;;;;;;12.42;93.22;100478.84;5019365;28;20026;-85
2022/11/09 04:38:26;;;;;;;11.43;3.83;;;;;;;12.35;93.85;100475.38;5020805;28;20061;-88
2022/11/09 04:40:51;;;;;;;12.37;3.50;;;;;;;12.35;93.80;100476.22;5019664;28;20037;-87
2022/11/09 04:43:17;;;;;;;13.27;3.97;;;;;;;12.41;93.38;100477.19;5020227;28;20132;-84
2022/11/09 04:45:43;;;;;;;11.13;3.40;;;;;;;12.42;93.51;100481.56;5035020;28;20040;-85
2022/11/09 04:48:36;;;;;;;15.73;4.87;;;;;;;12.44;93.85;100483.00;5021148;28;20044;-89
2022/11/09 04:51:05;;;;;;;15.27;4.60;;;;;;;12.43;93.21;100483.19;5020454;28;20051;-88
2022/11/09 04:53:30;;;;;;;11.53;4.10;;;;;;;12.28;93.83;100475.47;5020808;28;20045;-86
2022/11/09 04:55:56;;;;;;;13.60;3.80;;;;;;;12.28;94.30;100473.63;5001250;28;20554;-87
2022/11/09 04:58:22;;;;;;;12.13;3.73;;;;;;;12.33;93.66;100484.63;5020100;28;20175;-83
2022/11/09 05:00:47;;;;;;;11.77;3.67;;;;;;;12.21;94.63;100486.47;5019436;28;20436;-86
2022/11/09 05:03:12;;;;;;;11.77;3.80;;;;;;;12.27;94.42;100479.28;5019495;28;20524;-85
2022/11/09 05:05:38;;;;;;;15.57;4.70;;;;;;;12.14;95.07;100469.44;5018738;28;20125;-85
2022/11/09 05:08:05;;;;;;;12.40;3.57;;;;;;;12.13;95.16;100470.47;5019267;28;20112;-86
2022/11/09 05:10:31;;;;;;;11.67;3.10;;;;;;;12.07;95.58;100471.41;5020463;28;20040;-86
2022/11/09 05:13:01;;;;;;;11.70;3.57;;;;;;;12.12;95.05;100461.50;5020111;28;21665;-88
2022/11/09 05:15:27;;;;;;;13.13;3.27;;;;;;;12.05;95.46;100468.94;5019279;28;20034;-85
2022/11/09 05:17:52;;;;;;;12.43;4.10;;;;;;;11.95;96.25;100461.34;5019742;28;20465;-85
2022/11/09 05:20:18;;;;;;;12.80;3.87;;;;;;;12.09;95.85;100463.84;5020038;28;20029;-85
2022/11/09 05:25:27;;;;;;;15.18;4.65;;;;;;;11.96;97.04;100471.13;5019243;28;20145;-85
2022/11/09 05:27:53;;;;;;;15.50;4.20;;;;;;;11.99;96.51;100465.25;5018268;28;20041;-82
2022/11/09 05:30:19;;;;;;;16.17;4.93;;;;;;;11.99;96.37;100475.28;5019466;28;20037;-87
2022/11/09 05:32:44;;;;;;;14.80;3.53;;;;;;;11.98;96.67;100466.31;5019071;28;20044;-86
2022/11/09 05:35:10;;;;;;;13.40;3.67;;;;;;;12.06;96.06;100475.19;5022901;28;20424;-85
2022/11/09 05:37:37;;;;;;;11.80;3.40;;;;;;;11.92;96.78;100475.34;5001954;28;20079;-86
2022/11/09 05:40:03;;;;;;;12.00;3.50;;;;;;;11.98;96.69;100479.03;5019366;28;20485;-86
2022/11/09 05:42:28;;;;;;;15.57;4.60;;;;;;;11.90;97.01;100482.91;5018772;28;20029;-85
2022/11/09 05:44:54;;;;;;;14.37;3.83;;;;;;;11.85;97.32;100476.50;5000200;28;20284;-86
2022/11/09 05:47:19;;;;;;;16.90;4.67;;;;;;;11.79;97.23;100472.78;5018740;28;20068;-86
2022/11/09 05:49:45;;;;;;;13.87;4.63;;;;;;;11.86;97.26;100479.00;5018220;28;20099;-84
2022/11/09 05:52:10;;;;;;;14.13;4.73;;;;;;;11.83;97.28;100479.41;5018781;28;20037;-88
2022/11/09 05:54:35;;;;;;;15.50;4.07;;;;;;;11.79;97.62;100473.66;5016599;28;20049;-86
2022/11/09 05:57:01;;;;;;;13.43;4.33;;;;;;;11.79;97.66;100487.22;5019670;28;20269;-86
2022/11/09 05:59:56;;;;;;;14.93;4.37;;;;;;;11.88;97.34;100485.00;5018818;28;20041;-83
2022/11/09 06:02:22;;;;;;;14.98;4.97;;;;;;;11.82;97.08;100488.66;5001482;28;20018;-85
2022/11/09 06:05:31;;;;;;;16.57;4.80;;;;;;;11.78;97.69;100477.41;5019045;28;20048;-85
2022/11/09 06:08:03;;;;;;;12.90;4.60;;;;;;;11.71;97.65;100478.53;5020042;28;20041;-87
2022/11/09 06:10:29;;;;;;;16.57;6.27;;;;;;;11.65;98.04;100478.41;5017620;28;20034;-86
2022/11/09 06:12:54;;;;;;;15.97;4.67;;;;;;;11.61;98.23;100482.66;5019941;28;20491;-85
2022/11/09 06:15:19;;;;;;;16.73;5.17;;;;;;;11.59;98.11;100475.78;4983547;28;20034;-86
2022/11/09 06:17:51;;;;;;;15.90;4.70;;;;;;;11.57;98.45;100484.16;5032941;28;20037;-86
2022/11/09 06:20:16;;;;;;;15.03;4.23;;;;;;;11.55;98.81;100482.72;5019031;28;20563;-86
2022/11/09 06:22:41;;;;;;;17.93;4.67;;;;;;;11.52;98.58;100478.59;5019005;28;20072;-87
2022/11/09 06:25:07;;;;;;;13.63;3.80;;;;;;;11.56;98.65;100482.50;5018168;28;20094;-88
2022/11/09 06:27:32;;;;;;;16.03;5.43;;;;;;;11.47;99.45;100492.00;5018479;28;20037;-88
2022/11/09 06:29:58;;;;;;;15.90;5.30;;;;;;;11.45;99.75;100478.66;5018576;28;20045;-84
2022/11/09 06:32:23;;;;;;;18.87;5.30;;;;;;;11.48;99.84;100493.66;5018594;28;20038;-85
2022/11/09 06:34:54;;;;;;;17.43;4.73;;;;;;;11.51;99.91;100493.19;5018374;28;20045;-88
2022/11/09 06:37:20;;;;;;;14.00;4.80;;;;;;;11.47;99.33;100497.41;5018459;28;21778;-87
2022/11/09 06:39:46;;;;;;;14.33;5.20;;;;;;;11.46;99.89;100503.88;5019783;28;20052;-87
2022/11/09 06:42:11;;;;;;;14.60;4.47;;;;;;;11.44;99.92;100506.84;5034327;28;20099;-87
2022/11/09 06:44:37;;;;;;;17.93;4.83;;;;;;;11.53;99.49;100501.09;4999905;28;20382;-85
2022/11/09 06:47:02;;;;;;;13.40;3.80;;;;;;;11.54;99.76;100506.28;5001752;28;20084;-88
2022/11/09 06:49:27;;;;;;;15.13;3.97;;;;;;;11.49;99.59;100504.28;5002920;28;20041;-85
2022/11/09 06:51:53;;;;;;;15.30;3.40;;;;;;;11.60;99.90;100508.13;4969012;28;20045;-85
2022/11/09 06:54:18;;;;;;;15.23;4.47;;;;;;;11.55;99.46;100507.97;5002643;28;20042;-86
2022/11/09 06:56:43;;;;;;;18.27;5.43;;;;;;;11.47;100.00;100498.22;5001186;28;20071;-87
2022/11/09 06:59:09;;;;;;;16.70;5.13;;;;;;;11.54;99.93;100505.47;5002235;28;20164;-85
2022/11/09 07:01:36;;;;;;;18.37;5.50;;;;;;;11.47;100.00;100505.56;5001508;28;20645;-87
2022/11/09 07:04:01;;;;;;;16.70;5.70;;;;;;;11.48;100.00;100513.47;4991328;28;20029;-84
2022/11/09 07:06:27;;;;;;;14.20;4.20;;;;;;;11.42;100.00;100508.09;5002273;28;20396;-87
2022/11/09 07:08:56;;;;;;;16.73;4.57;;;;;;;11.40;100.00;100523.78;5000753;28;20026;-83
2022/11/09 07:11:21;;;;;;;14.50;4.33;;;;;;;11.49;100.00;100517.84;5002208;28;20030;-84
2022/11/09 07:13:47;;;;;;;15.83;5.10;;;;;;;11.48;100.00;100526.22;5001680;28;20124;-86
2022/11/09 07:16:16;;;;;;;17.63;5.40;;;;;;;11.47;100.00;100524.53;5001194;28;20841;-85
2022/11/09 07:18:42;;;;;;;18.67;5.47;;;;;;;11.44;100.00;100530.44;5002261;28;20538;-87
2022/11/09 07:21:08;;;;;;;15.73;4.97;;;;;;;11.48;100.00;100527.03;5000927;28;20042;-86
2022/11/09 07:23:33;;;;;;;15.30;4.90;;;;;;;11.47;100.00;100540.81;5000981;28;20075;-87
2022/11/09 07:25:59;;;;;;;16.37;5.20;;;;;;;11.48;100.00;100531.63;5001231;28;20041;-85
2022/11/09 07:28:24;;;;;;;12.87;3.27;;;;;;;11.58;100.00;100540.06;5002768;28;20044;-88
2022/11/09 07:30:51;;;;;;;13.90;3.40;;;;;;;11.57;100.00;100537.56;5002125;28;20100;-85
2022/11/09 07:33:18;;;;;;;16.03;3.60;;;;;;;11.63;99.88;100547.53;5001156;28;20478;-88
2022/11/09 07:35:44;;;;;;;12.17;3.40;;;;;;;11.71;99.33;100543.69;5016600;28;20044;-85
2022/11/09 07:38:10;;;;;;;16.23;3.97;;;;;;;11.72;99.18;100543.47;5001443;28;20038;-84
2022/11/09 07:40:35;;;;;;;13.83;3.47;;;;;;;11.71;99.32;100535.53;5001594;28;20041;-86
2022/11/09 07:43:04;;;;;;;12.97;4.10;;;;;;;11.80;98.29;100535.03;5007970;28;20110;-86
2022/11/09 07:45:30;;;;;;;14.57;4.40;;;;;;;11.76;98.50;100535.69;5002071;28;20056;-84
2022/11/09 07:48:01;;;;;;;14.80;4.27;;;;;;;11.82;98.36;100538.31;5020683;28;20139;-88
2022/11/09 07:50:28;;;;;;;13.70;4.60;;;;;;;11.83;98.12;100545.41;5010187;28;20405;-86
2022/11/09 07:52:55;;;;;;;15.10;4.70;;;;;;;11.81;98.09;100543.97;5020991;28;20127;-87
2022/11/09 07:55:20;;;;;;;15.03;4.40;;;;;;;11.81;98.49;100546.69;5021376;28;20033;-86
2022/11/09 07:58:07;;;;;;;13.00;3.63;;;;;;;11.99;97.76;100551.31;5007978;28;20516;-86
2022/11/09 08:00:35;;;;;;;11.23;3.50;;;;;;;11.92;97.18;100551.34;5021272;28;20087;-88
2022/11/09 08:03:01;;;;;;;12.77;4.20;;;;;;;12.01;96.49;100556.50;5021464;28;20033;-89
2022/11/09 08:05:26;;;;;;;13.73;4.13;;;;;;;11.96;96.30;100558.03;5020810;28;20397;-87
2022/11/09 08:07:56;;;;;;;12.17;3.20;;;;;;;12.05;95.67;100563.97;5020905;28;20383;-85
2022/11/09 08:10:22;;;;;;;12.50;3.80;;;;;;;12.11;95.60;100565.75;5033872;28;20056;-86
2022/11/09 08:13:02;;;;;;;11.87;3.20;;;;;;;12.14;95.06;100570.75;5021134;28;20043;-85
2022/11/09 08:15:28;;;;;;;12.03;3.30;;;;;;;12.14;94.98;100568.03;5016949;28;20049;-86
2022/11/09 08:17:57;;;;;;;14.67;4.10;;;;;;;12.07;95.39;100575.44;5016116;28;20043;-85
2022/11/09 08:20:22;;;;;;;11.17;3.30;;;;;;;12.08;95.69;100585.25;5027737;28;20048;-87
2022/11/09 08:22:48;;;;;;;10.93;3.70;;;;;;;12.09;95.52;100583.34;5016786;28;20034;-85
2022/11/09 08:25:42;;;;;;;13.37;4.17;;;;;;;12.08;95.45;100574.38;4998295;28;20040;-85
2022/11/09 08:28:08;;;;;;;11.10;2.90;;;;;;;12.14;95.21;100591.63;4998119;28;20037;-85
2022/11/09 08:30:33;;;;;;;13.43;3.17;;;;;;;12.21;94.58;100594.28;5015764;28;20041;-87
2022/11/09 08:33:00;;;;;;;13.10;4.20;;;;;;;12.33;94.84;100590.56;5016812;28;20120;-85
2022/11/09 08:35:25;;;;;;;13.10;3.90;;;;;;;12.43;93.53;100592.72;5015480;28;20079;-86
2022/11/09 08:37:52;;;;;;;14.27;3.07;;;;;;;12.57;92.49;100608.84;5015544;28;20994;-85
2022/11/09 08:40:20;;;;;;;12.47;3.67;;;;;;;12.55;92.82;100605.53;5016033;28;20103;-86
2022/11/09 08:42:46;;;;;;;13.17;3.10;;;;;;;12.55;93.00;100606.38;4997738;28;20480;-86
2022/11/09 08:45:11;;;;;;;12.43;3.80;;;;;;;12.60;92.55;100609.19;5035540;28;20118;-84
2022/11/09 08:47:38;;;;;;;12.23;3.90;;;;;;;12.70;92.20;100608.66;5037417;28;20071;-88
2022/11/09 08:50:05;;;;;;;10.43;3.60;;;;;;;12.87;91.11;100603.38;5036037;28;20083;-85
2022/11/09 08:52:31;;;;;;;12.93;3.40;;;;;;;12.87;90.13;100597.94;5036218;28;20036;-88
2022/11/09 08:54:56;;;;;;;13.10;3.10;;;;;;;12.90;89.30;100602.91;5036081;28;20105;-86
2022/11/09 08:57:22;;;;;;;11.57;3.07;;;;;;;12.80;90.02;100608.91;5018542;28;20090;-86
2022/11/09 08:59:47;;;;;;;9.67;2.73;;;;;;;12.91;88.78;100596.41;5035747;28;20595;-86
2022/11/09 09:02:13;;;;;;;11.53;3.10;;;;;;;12.87;90.25;100608.81;5019258;28;21120;-86
2022/11/09 09:04:39;;;;;;;12.30;3.80;;;;;;;12.79;90.03;100607.25;5039330;28;20111;-86
2022/11/09 09:07:05;;;;;;;10.80;2.80;;;;;;;13.00;88.73;100592.28;5039745;28;20045;-87
2022/11/09 09:09:30;;;;;;;10.23;2.63;;;;;;;13.08;88.23;100609.31;5040957;28;20117;-87
2022/11/09 09:11:56;;;;;;;7.90;2.60;;;;;;;13.13;88.33;100606.72;5038677;28;20489;-87
2022/11/09 09:14:22;;;;;;;11.67;2.90;;;;;;;13.13;88.97;100606.72;5040733;28;20032;-87
2022/11/09 09:16:47;;;;;;;8.27;2.70;;;;;;;13.22;88.20;100605.31;5038849;28;20571;-87
2022/11/09 09:19:13;;;;;;;10.33;2.93;;;;;;;13.42;86.88;100606.88;5039377;28;20033;-88
2022/11/09 09:21:38;;;;;;;11.77;2.70;;;;;;;13.50;86.07;100607.38;5038982;28;20476;-85
2022/11/09 09:24:04;;;;;;;11.77;2.73;;;;;;;13.62;86.31;100612.78;5039695;28;20033;-88
2022/11/09 09:26:29;;;;;;;9.53;2.70;;;;;;;13.76;85.27;100604.38;5014159;28;20040;-88
2022/11/09 09:28:55;;;;;;;12.80;3.10;;;;;;;13.94;83.81;100601.53;5038451;28;20599;-88
2022/11/09 09:31:20;;;;;;;10.37;2.73;;;;;;;13.77;83.60;100606.88;5036942;28;20465;-89
2022/11/09 09:33:46;;;;;;;12.13;3.20;;;;;;;13.98;82.63;100624.47;5039216;28;20116;-86
2022/11/09 09:36:18;;;;;;;10.73;2.53;;;;;;;13.89;82.92;100617.75;5038405;28;20412;-89
2022/11/09 09:38:43;;;;;;;11.40;2.90;;;;;;;13.81;82.84;100620.84;5020962;28;20039;-88
2022/11/09 09:41:33;;;;;;;11.60;3.07;;;;;;;13.81;83.70;100631.72;5038000;28;20045;-86
2022/11/09 09:44:14;;;;;;;14.00;3.63;;;;;;;13.72;83.73;100636.72;5039390;28;20057;-86
2022/11/09 09:46:52;;;;;;;12.43;2.80;;;;;;;13.87;82.65;100633.50;5038588;28;20135;-85
2022/11/09 09:49:24;;;;;;;11.43;2.70;;;;;;;13.87;82.13;100643.56;5018426;28;20055;-89
2022/11/09 09:52:00;;;;;;;10.17;2.80;;;;;;;13.96;82.04;100645.66;5038347;28;20094;-85
2022/11/09 09:54:41;;;;;;;10.50;2.63;;;;;;;14.21;80.84;100647.31;5039010;28;20033;-87
2022/11/09 09:57:16;;;;;;;12.47;2.67;;;;;;;14.28;80.24;100653.44;5038465;28;20032;-86
2022/11/09 09:59:46;;;;;;;8.53;2.80;;;;;;;14.60;78.16;100650.22;5038298;28;20029;-90
2022/11/09 10:02:28;;;;;;;9.33;2.80;;;;;;;14.71;79.19;100661.38;5037863;28;20484;-88
2022/11/09 10:05:00;;;;;;;8.77;2.50;;;;;;;14.41;78.21;100662.41;5019904;28;20032;-88
2022/11/09 10:07:38;;;;;;;8.83;2.70;;;;;;;14.49;77.72;100662.03;5021744;28;20048;-90
2022/11/09 10:10:31;;;;;;;9.40;2.70;;;;;;;14.65;77.25;100665.91;5019778;28;20539;-86
2022/11/09 10:13:21;;;;;;;8.87;2.60;;;;;;;14.74;76.12;100660.88;5019812;28;20075;-87
2022/11/09 10:16:21;;;;;;;11.23;2.77;;;;;;;14.41;76.30;100654.22;5038697;28;20048;-88
2022/11/09 10:19:06;;;;;;;12.47;2.57;;;;;;;14.40;77.16;100663.47;5032718;28;20044;-88
2022/11/09 10:21:34;;;;;;;9.40;2.70;;;;;;;14.29;77.15;100657.81;5041310;28;20052;-84
2022/11/09 10:24:25;;;;;;;12.07;2.77;;;;;;;14.23;78.00;100653.31;5042212;28;20048;-87
2022/11/09 10:26:54;;;;;;;8.83;2.50;;;;;;;14.02;78.07;100663.78;5057890;28;20032;-87
2022/11/09 10:29:19;;;;;;;10.13;2.40;;;;;;;14.12;78.73;100665.09;5042202;28;20048;-88
2022/11/09 10:31:46;;;;;;;10.90;2.83;;;;;;;13.94;78.40;100658.72;5042788;28;20582;-85
2022/11/09 10:34:36;;;;;;;10.67;2.83;;;;;;;14.26;77.06;100668.38;5042966;28;20060;-87
2022/11/09 10:37:14;;;;;;;11.60;3.10;;;;;;;13.97;77.74;100666.41;5023913;28;20045;-89
2022/11/09 10:39:46;;;;;;;9.03;2.20;;;;;;;14.04;77.45;100670.91;5042257;28;20040;-88
2022/11/09 10:42:12;;;;;;;10.73;2.73;;;;;;;13.88;77.43;100676.00;5042310;28;20159;-87
2022/11/09 10:44:37;;;;;;;9.57;2.33;;;;;;;13.89;77.58;100677.66;5056846;28;20516;-87
2022/11/09 10:47:04;;;;;;;13.30;3.07;;;;;;;13.80;78.17;100682.66;5057159;28;20079;-85
2022/11/09 10:49:30;;;;;;;9.77;2.50;;;;;;;13.84;77.71;100661.19;5042727;28;20163;-85
2022/11/09 10:51:55;;;;;;;8.90;2.40;;;;;;;13.94;76.66;100688.69;5041729;28;20045;-89
2022/11/09 10:54:23;;;;;;;11.93;2.70;;;;;;;13.83;77.10;100684.03;5042479;28;20052;-88
2022/11/09 10:57:00;;;;;;;11.23;2.40;;;;;;;13.81;78.28;100689.72;5042118;28;20041;-86
2022/11/09 10:59:47;;;;;;;9.13;2.63;;;;;;;13.73;78.83;100683.81;5042464;28;20033;-86
2022/11/09 11:02:25;;;;;;;11.20;2.67;;;;;;;13.89;77.76;100683.13;5041990;28;20035;-88
2022/11/09 11:05:05;;;;;;;11.80;2.70;;;;;;;13.88;77.03;100678.72;5020878;28;20044;-89
2022/11/09 11:07:33;;;;;;;8.80;2.53;;;;;;;13.65;77.11;100691.28;5041531;28;20043;-88
2022/11/09 11:10:16;;;;;;;10.47;2.77;;;;;;;13.67;78.25;100702.75;5040755;28;20037;-85
2022/11/09 11:12:52;;;;;;;10.37;2.70;;;;;;;13.62;78.56;100688.22;5042239;28;20025;-87
2022/11/09 11:15:23;;;;;;;11.13;2.50;;;;;;;13.56;78.98;100691.84;5056959;28;20048;-88
2022/11/09 11:17:50;;;;;;;8.67;2.30;;;;;;;13.48;79.29;100690.34;5041578;28;20039;-86
2022/11/09 11:20:36;;;;;;;12.93;2.80;;;;;;;13.60;79.25;100693.03;5041688;28;20029;-86
2022/11/09 11:23:14;;;;;;;8.57;2.47;;;;;;;13.49;79.78;100703.69;5040656;28;20059;-88
2022/11/09 11:26:08;;;;;;;8.17;2.50;;;;;;;13.51;80.14;100692.56;5042364;28;20037;-87
2022/11/09 11:28:48;;;;;;;8.73;2.35;;;;;;;13.61;78.03;100695.56;5041379;28;20029;-87